Weather at Luxembourg-Findel International Airport

Public forecast

Using degrees Celsius for public forecast. Weather courtesy of forecast.io.

Current aviation weather report (METAR) for Luxembourg-Findel International Airport

2024/05/29 18:50 (retrieved 20 minutes ago)

ELLX 291850Z 19008KT 160V240 5000 -RA BR SCT003 BKN005 13/13 Q1010 TEMPO 22015G25KT 3500

Aviation forecast (TAF) for Luxembourg-Findel International Airport

2024/05/29 18:27 (retrieved 43 minutes ago)

TAF TAF ELLX 291700Z 2918/3024 22010KT 9999 BKN012 TEMPO 2918/2924 22015G25KT 3000 SHRA RA BKN008TCU BECMG 3000/3002 2000 BR BKN004 BECMG 3006/3008 29010KT 9999 BKN015 TEMPO 3011/3020 SHRA SCT025CB PROB40 TEMPO 3013/3018 28020G30KT 2500 TSRA